createdAt,value
2023-11-18T00:01:34.270Z,99758.41
2023-11-18T00:04:02.232Z,99770.66
2023-11-18T00:06:29.653Z,99768.94
2023-11-18T00:08:57.066Z,99773.03
2023-11-18T00:11:25.268Z,99767.41
2023-11-18T00:13:52.797Z,99780.09
2023-11-18T00:16:20.285Z,99769.31
2023-11-18T00:18:48.245Z,99765.84
2023-11-18T00:21:15.606Z,99772.06
2023-11-18T00:23:43.069Z,99771.31
2023-11-18T00:26:11.507Z,99777.16
2023-11-18T00:28:39.008Z,99774.44
2023-11-18T00:31:07.704Z,99774.81
2023-11-18T00:33:35.479Z,99770.47
2023-11-18T00:36:04.344Z,99785.72
2023-11-18T00:38:31.771Z,99797.94
2023-11-18T00:40:59.646Z,99805.72
2023-11-18T00:43:27.377Z,99783.19
2023-11-18T00:45:54.792Z,99783.31
2023-11-18T00:48:22.460Z,99796.81
2023-11-18T00:50:49.812Z,99784.62
2023-11-18T00:53:17.174Z,99789.53
2023-11-18T00:55:45.005Z,99798.47
2023-11-18T00:58:12.429Z,99788.47
2023-11-18T01:00:39.815Z,99780.53
2023-11-18T01:03:07.594Z,99783.44
2023-11-18T01:05:35.631Z,99784.44
2023-11-18T01:08:03.762Z,99825.53
2023-11-18T01:10:31.476Z,99787.47
2023-11-18T01:12:58.988Z,99793.34
2023-11-18T01:15:26.403Z,99808.81
2023-11-18T01:17:54.288Z,99812.28
2023-11-18T01:20:22.933Z,99809.59
2023-11-18T01:22:50.595Z,99815.41
2023-11-18T01:25:18.680Z,99809.53
2023-11-18T01:27:49.167Z,99815.16
2023-11-18T01:30:17.655Z,99805.13
2023-11-18T01:32:45.450Z,99808.63
2023-11-18T01:35:13.729Z,99831.22
2023-11-18T01:37:41.348Z,99800.66
2023-11-18T01:40:09.304Z,99803.19
2023-11-18T01:42:38.156Z,99799.53
2023-11-18T01:45:06.696Z,99817.06
2023-11-18T01:47:34.852Z,99809.25
2023-11-18T01:50:02.616Z,99809.66
2023-11-18T01:52:31.648Z,99809.97
2023-11-18T01:54:59.558Z,99817.66
2023-11-18T01:57:28.100Z,99804.22
2023-11-18T01:59:55.656Z,99807.84
2023-11-18T02:02:23.529Z,99813.09
2023-11-18T02:04:51.548Z,99822.00
2023-11-18T02:07:19.145Z,99819.72
2023-11-18T02:09:46.988Z,99812.09
2023-11-18T02:12:22.995Z,99815.09
2023-11-18T02:14:51.052Z,99824.56
2023-11-18T02:17:25.363Z,99822.62
2023-11-18T02:19:57.776Z,99824.69
2023-11-18T02:22:25.814Z,99832.56
2023-11-18T02:24:54.255Z,99824.53
2023-11-18T02:27:23.359Z,99818.69
2023-11-18T02:29:52.325Z,99822.47
2023-11-18T02:32:27.939Z,99827.03
2023-11-18T02:35:11.738Z,99837.78
2023-11-18T02:37:40.431Z,99843.03
2023-11-18T02:40:15.545Z,99848.50
2023-11-18T02:42:44.505Z,99868.81
2023-11-18T02:45:16.281Z,99849.53
2023-11-18T02:47:47.102Z,99838.19
2023-11-18T02:50:14.978Z,99826.72
2023-11-18T02:52:43.158Z,99831.69
2023-11-18T02:55:11.709Z,99842.69
2023-11-18T02:57:39.312Z,99838.22
2023-11-18T03:00:12.283Z,99840.75
2023-11-18T03:02:40.732Z,99850.59
2023-11-18T03:05:09.001Z,99851.13
2023-11-18T03:07:36.433Z,99850.09
2023-11-18T03:10:09.572Z,99849.44
2023-11-18T03:12:36.957Z,99846.06
2023-11-18T03:15:06.965Z,99862.53
2023-11-18T03:17:34.816Z,99851.47
2023-11-18T03:20:02.346Z,99874.38
2023-11-18T03:22:30.677Z,99876.16
2023-11-18T03:24:58.151Z,99871.78
2023-11-18T03:27:25.533Z,99885.81
2023-11-18T03:29:53.867Z,99875.88
2023-11-18T03:32:22.571Z,99862.13
2023-11-18T03:34:50.454Z,99871.50
2023-11-18T03:37:18.162Z,99873.06
2023-11-18T03:39:46.408Z,99877.25
2023-11-18T03:42:13.846Z,99880.75
2023-11-18T03:44:41.900Z,99877.25
2023-11-18T03:47:09.361Z,99883.16
2023-11-18T03:49:37.080Z,99891.94
2023-11-18T03:52:05.330Z,99892.59
2023-11-18T03:54:32.731Z,99882.84
2023-11-18T03:57:00.706Z,99889.13
2023-11-18T03:59:28.522Z,99894.97
2023-11-18T04:01:55.974Z,99902.87
2023-11-18T04:04:23.689Z,99905.38
2023-11-18T04:06:51.365Z,99905.88
2023-11-18T04:09:18.749Z,99912.50
2023-11-18T04:11:47.169Z,99914.41
2023-11-18T04:14:14.536Z,99923.22
2023-11-18T04:16:42.882Z,99920.50
2023-11-18T04:19:10.666Z,99913.88
2023-11-18T04:21:38.019Z,99925.78
2023-11-18T04:24:06.624Z,99911.66
2023-11-18T04:26:34.264Z,99918.13
2023-11-18T04:29:01.684Z,99919.34
2023-11-18T04:31:29.037Z,99929.16
2023-11-18T04:33:57.134Z,99923.31
2023-11-18T04:36:24.521Z,99930.94
2023-11-18T04:38:51.893Z,99925.00
2023-11-18T04:41:19.715Z,99944.84
2023-11-18T04:43:48.770Z,99949.19
2023-11-18T04:46:16.413Z,99945.94
2023-11-18T04:48:44.299Z,99944.56
2023-11-18T04:51:13.252Z,99957.50
2023-11-18T04:53:40.668Z,99949.91
2023-11-18T04:56:11.707Z,99952.00
2023-11-18T04:58:40.382Z,99955.87
2023-11-18T05:01:08.128Z,99935.69
2023-11-18T05:03:36.137Z,99929.62
2023-11-18T05:06:05.081Z,99944.94
2023-11-18T05:08:34.773Z,99934.13
2023-11-18T05:11:02.365Z,99945.91
2023-11-18T05:13:30.869Z,99951.97
2023-11-18T05:15:58.492Z,99948.03
2023-11-18T05:18:26.196Z,99954.28
2023-11-18T05:20:55.493Z,99981.53
2023-11-18T05:23:23.143Z,99987.13
2023-11-18T05:25:51.132Z,99986.59
2023-11-18T05:28:18.511Z,99984.34
2023-11-18T05:30:46.196Z,99985.53
2023-11-18T05:33:18.757Z,99979.13
2023-11-18T05:35:50.479Z,99984.75
2023-11-18T05:38:22.921Z,99975.16
2023-11-18T05:40:58.018Z,99975.06
2023-11-18T05:43:31.096Z,99970.69
2023-11-18T05:46:15.955Z,99972.84
2023-11-18T05:48:45.038Z,99973.13
2023-11-18T05:51:12.861Z,99983.75
2023-11-18T05:53:47.476Z,99985.56
2023-11-18T05:56:15.689Z,99990.75
2023-11-18T05:58:44.465Z,100002.56
2023-11-18T06:01:12.882Z,99995.66
2023-11-18T06:03:41.104Z,99989.94
2023-11-18T06:06:09.085Z,100009.25
2023-11-18T06:08:37.120Z,100000.94
2023-11-18T06:11:13.973Z,99991.34
2023-11-18T06:13:51.807Z,99993.03
2023-11-18T06:16:21.549Z,99998.84
2023-11-18T06:18:51.047Z,100006.00
2023-11-18T06:21:19.991Z,100001.12
2023-11-18T06:23:50.978Z,100002.81
2023-11-18T06:26:21.549Z,99993.53
2023-11-18T06:28:50.449Z,99999.41
2023-11-18T06:31:18.416Z,99997.91
2023-11-18T06:33:46.994Z,100008.88
2023-11-18T06:36:14.626Z,99994.69
2023-11-18T06:38:42.362Z,100016.00
2023-11-18T06:41:12.985Z,100026.03
2023-11-18T06:43:53.619Z,100032.56
2023-11-18T06:46:23.858Z,100030.09
2023-11-18T06:48:55.311Z,100023.25
2023-11-18T06:51:25.544Z,100025.09
2023-11-18T06:53:53.287Z,100021.22
2023-11-18T06:56:20.805Z,100040.47
2023-11-18T06:58:48.195Z,100034.59
2023-11-18T07:01:16.263Z,100035.66
2023-11-18T07:03:44.830Z,100034.84
2023-11-18T07:06:15.414Z,100038.97
2023-11-18T07:08:43.028Z,100047.53
2023-11-18T07:11:10.874Z,100051.22
2023-11-18T07:13:40.049Z,100053.50
2023-11-18T07:16:10.136Z,100057.06
2023-11-18T07:18:39.173Z,100066.88
2023-11-18T07:21:06.610Z,100061.59
2023-11-18T07:23:34.350Z,100060.66
2023-11-18T07:26:02.169Z,100060.34
2023-11-18T07:28:29.786Z,100064.25
2023-11-18T07:30:59.247Z,100058.94
2023-11-18T07:33:27.260Z,100061.94
2023-11-18T07:35:55.105Z,100064.37
2023-11-18T07:38:22.874Z,100060.41
2023-11-18T07:40:50.328Z,100068.69
2023-11-18T07:43:17.726Z,100059.31
2023-11-18T07:45:45.504Z,100062.38
2023-11-18T07:48:13.301Z,100068.88
2023-11-18T07:50:45.705Z,100067.44
2023-11-18T07:53:13.556Z,100082.22
2023-11-18T07:55:41.142Z,100065.34
2023-11-18T07:58:14.405Z,100071.53
2023-11-18T08:00:42.614Z,100089.91
2023-11-18T08:03:13.348Z,100095.03
2023-11-18T08:05:47.490Z,100090.81
2023-11-18T08:08:18.071Z,100104.78
2023-11-18T08:10:46.080Z,100111.28
2023-11-18T08:13:14.173Z,100091.25
2023-11-18T08:15:42.904Z,100103.97
2023-11-18T08:18:13.231Z,100100.38
2023-11-18T08:20:40.795Z,100077.91
2023-11-18T08:23:08.470Z,100112.59
2023-11-18T08:25:37.261Z,100114.13
2023-11-18T08:28:05.883Z,100094.53
2023-11-18T08:30:37.176Z,100087.09
2023-11-18T08:33:10.703Z,100095.81
2023-11-18T08:35:38.651Z,100109.94
2023-11-18T08:38:08.747Z,100085.09
2023-11-18T08:40:37.289Z,100097.97
2023-11-18T08:43:08.761Z,100079.31
2023-11-18T08:45:37.519Z,100087.81
2023-11-18T08:48:09.496Z,100079.81
2023-11-18T08:50:37.732Z,100087.87
2023-11-18T08:53:06.846Z,100084.66
2023-11-18T08:55:42.398Z,100087.53
2023-11-18T08:58:23.449Z,100082.16
2023-11-18T09:00:56.168Z,100088.06
2023-11-18T09:03:37.611Z,100094.97
2023-11-18T09:06:07.494Z,100082.03
2023-11-18T09:08:36.655Z,100086.59
2023-11-18T09:11:08.122Z,100068.97
2023-11-18T09:13:36.411Z,100087.34
2023-11-18T09:16:05.245Z,100095.81
2023-11-18T09:18:34.914Z,100097.13
2023-11-18T09:21:04.645Z,100106.66
2023-11-18T09:23:33.196Z,100077.63
2023-11-18T09:26:00.629Z,100076.62
2023-11-18T09:28:31.464Z,100109.41
2023-11-18T09:30:59.144Z,100078.53
2023-11-18T09:33:27.111Z,100124.34
2023-11-18T09:36:01.077Z,100097.00
2023-11-18T09:38:29.929Z,100090.38
2023-11-18T09:41:04.276Z,100087.31
2023-11-18T09:43:34.016Z,100099.38
2023-11-18T09:46:13.561Z,100084.81
2023-11-18T09:49:03.099Z,100099.56
2023-11-18T09:51:36.311Z,100115.94
2023-11-18T09:54:11.237Z,100114.28
2023-11-18T09:56:47.977Z,100106.66
2023-11-18T09:59:24.967Z,100096.56
2023-11-18T10:01:58.838Z,100105.25
2023-11-18T10:04:29.005Z,100096.69
2023-11-18T10:06:57.674Z,100111.09
2023-11-18T10:09:41.021Z,100095.78
2023-11-18T10:12:08.890Z,100095.66
2023-11-18T10:14:36.577Z,100089.06
2023-11-18T10:17:08.214Z,100105.94
2023-11-18T10:19:58.386Z,100092.19
2023-11-18T10:22:30.330Z,100082.13
2023-11-18T10:24:58.396Z,100066.69
2023-11-18T10:27:26.446Z,100078.34
2023-11-18T10:30:06.957Z,100083.63
2023-11-18T10:32:37.377Z,100070.31
2023-11-18T10:35:09.062Z,100112.16
2023-11-18T10:37:43.328Z,100084.19
2023-11-18T10:40:14.677Z,100080.84
2023-11-18T10:42:44.095Z,100072.53
2023-11-18T10:45:14.249Z,100090.97
2023-11-18T10:47:43.726Z,100069.00
2023-11-18T10:50:11.734Z,100106.75
2023-11-18T10:52:42.383Z,100081.16
2023-11-18T10:55:13.840Z,100096.81
2023-11-18T10:57:43.431Z,100094.78
2023-11-18T11:00:16.105Z,100066.94
2023-11-18T11:02:44.270Z,100090.12
2023-11-18T11:05:21.000Z,100071.09
2023-11-18T11:07:50.089Z,100070.53
2023-11-18T11:10:18.088Z,100139.09
2023-11-18T11:12:53.355Z,100107.81
2023-11-18T11:15:30.262Z,100112.44
2023-11-18T11:18:10.041Z,100113.38
2023-11-18T11:20:43.455Z,100109.62
2023-11-18T11:23:22.898Z,100119.50
2023-11-18T11:26:05.759Z,100127.81
2023-11-18T11:28:47.802Z,100151.75
2023-11-18T11:31:23.912Z,100123.69
2023-11-18T11:33:59.939Z,100111.59
2023-11-18T11:36:32.589Z,100135.78
2023-11-18T11:38:59.937Z,100163.31
2023-11-18T11:41:27.962Z,100173.19
2023-11-18T11:44:00.161Z,100162.75
2023-11-18T11:46:34.434Z,100175.53
2023-11-18T11:49:09.715Z,100180.16
2023-11-18T11:51:56.644Z,100171.12
2023-11-18T11:54:37.922Z,100205.34
2023-11-18T11:57:07.234Z,100170.69
2023-11-18T11:59:45.910Z,100155.78
2023-11-18T12:02:23.303Z,100160.81
2023-11-18T12:04:53.867Z,100160.97
2023-11-18T12:07:24.219Z,100182.91
2023-11-18T12:09:54.847Z,100227.25
2023-11-18T12:12:22.793Z,100171.44
2023-11-18T12:15:22.776Z,100158.94
2023-11-18T12:18:00.324Z,100176.53
2023-11-18T12:20:44.057Z,100178.78
2023-11-18T12:23:24.267Z,100176.78
2023-11-18T12:25:55.478Z,100219.47
2023-11-18T12:28:31.988Z,100214.44
2023-11-18T12:31:07.587Z,100183.37
2023-11-18T12:33:54.408Z,100189.06
2023-11-18T12:36:31.669Z,100217.31
2023-11-18T12:39:21.240Z,100194.31
2023-11-18T12:42:07.660Z,100206.28
2023-11-18T12:45:23.360Z,100223.31
2023-11-18T12:47:52.409Z,100172.06
2023-11-18T12:50:25.651Z,100184.84
2023-11-18T12:52:53.742Z,100193.50
2023-11-18T12:55:21.565Z,100186.75
2023-11-18T12:57:49.401Z,100195.41
2023-11-18T13:00:29.276Z,100200.97
2023-11-18T13:02:59.276Z,100185.72
2023-11-18T13:05:31.308Z,100186.78
2023-11-18T13:08:00.397Z,100208.19
2023-11-18T13:10:28.246Z,100187.22
2023-11-18T13:12:55.672Z,100194.59
2023-11-18T13:15:25.691Z,100189.75
2023-11-18T13:18:02.698Z,100187.53
2023-11-18T13:20:30.445Z,100186.53
2023-11-18T13:22:57.919Z,100180.44
2023-11-18T13:25:25.338Z,100197.66
2023-11-18T13:27:52.992Z,100198.09
2023-11-18T13:30:21.872Z,100192.50
2023-11-18T13:32:50.721Z,100223.31
2023-11-18T13:35:20.582Z,100218.47
2023-11-18T13:37:50.110Z,100207.44
2023-11-18T13:40:20.650Z,100200.25
2023-11-18T13:42:48.102Z,100207.69
2023-11-18T13:45:30.662Z,100237.34
2023-11-18T13:48:04.112Z,100213.66
2023-11-18T13:50:31.657Z,100219.91
2023-11-18T13:52:59.550Z,100230.44
2023-11-18T13:55:28.873Z,100235.62
2023-11-18T13:57:58.752Z,100234.03
2023-11-18T14:00:31.240Z,100233.25
2023-11-18T14:03:05.912Z,100232.75
2023-11-18T14:05:34.619Z,100233.13
2023-11-18T14:08:09.853Z,100225.78
2023-11-18T14:10:39.623Z,100226.97
2023-11-18T14:13:07.440Z,100222.41
2023-11-18T14:15:37.690Z,100240.03
2023-11-18T14:18:05.504Z,100252.03
2023-11-18T14:20:33.245Z,100242.53
2023-11-18T14:23:00.739Z,100256.78
2023-11-18T14:25:28.484Z,100236.38
2023-11-18T14:27:56.137Z,100234.91
2023-11-18T14:30:26.648Z,100262.09
2023-11-18T14:32:54.076Z,100251.19
2023-11-18T14:35:22.072Z,100283.41
2023-11-18T14:37:49.803Z,100260.09
2023-11-18T14:40:17.439Z,100285.03
2023-11-18T14:42:46.710Z,100280.44
2023-11-18T14:45:14.829Z,100281.78
2023-11-18T14:47:42.481Z,100276.06
2023-11-18T14:50:18.956Z,100283.47
2023-11-18T14:52:55.572Z,100246.53
2023-11-18T14:55:23.349Z,100260.03
2023-11-18T14:57:51.418Z,100281.59
2023-11-18T15:00:25.948Z,100276.62
2023-11-18T15:02:56.789Z,100285.16
2023-11-18T15:05:26.977Z,100278.66
2023-11-18T15:07:55.870Z,100293.44
2023-11-18T15:10:24.248Z,100297.94
2023-11-18T15:12:56.063Z,100291.22
2023-11-18T15:15:24.059Z,100287.16
2023-11-18T15:17:51.883Z,100303.81
2023-11-18T15:20:19.776Z,100281.84
2023-11-18T15:22:47.534Z,100299.03
2023-11-18T15:25:15.032Z,100272.94
2023-11-18T15:27:44.369Z,100279.28
2023-11-18T15:30:12.659Z,100287.13
2023-11-18T15:32:41.736Z,100304.84
2023-11-18T15:35:12.099Z,100308.66
2023-11-18T15:37:42.380Z,100315.91
2023-11-18T15:40:11.765Z,100334.53
2023-11-18T15:42:42.705Z,100333.25
2023-11-18T15:45:14.345Z,100326.25
2023-11-18T15:47:43.854Z,100335.50
2023-11-18T15:50:19.796Z,100334.09
2023-11-18T15:52:49.049Z,100338.69
2023-11-18T15:55:18.360Z,100319.31
2023-11-18T15:57:53.571Z,100324.59
2023-11-18T16:00:21.703Z,100341.53
2023-11-18T16:02:50.113Z,100318.75
2023-11-18T16:05:19.474Z,100319.09
2023-11-18T16:07:46.996Z,100314.38
2023-11-18T16:10:22.762Z,100312.16
2023-11-18T16:12:53.906Z,100314.50
2023-11-18T16:15:23.094Z,100315.28
2023-11-18T16:17:50.930Z,100333.00
2023-11-18T16:20:19.617Z,100350.16
2023-11-18T16:22:50.865Z,100341.19
2023-11-18T16:25:21.103Z,100356.38
2023-11-18T16:27:49.102Z,100337.41
2023-11-18T16:30:16.737Z,100344.53
2023-11-18T16:32:47.085Z,100337.62
2023-11-18T16:35:17.546Z,100353.16
2023-11-18T16:37:45.011Z,100360.09
2023-11-18T16:40:15.177Z,100362.84
2023-11-18T16:42:43.671Z,100374.31
2023-11-18T16:45:12.021Z,100378.50
2023-11-18T16:47:40.304Z,100357.03
2023-11-18T16:50:15.553Z,100364.31
2023-11-18T16:52:42.969Z,100360.72
2023-11-18T16:55:10.701Z,100373.13
2023-11-18T16:57:38.240Z,100364.28
2023-11-18T17:00:24.197Z,100372.28
2023-11-18T17:02:59.294Z,100368.38
2023-11-18T17:05:32.258Z,100365.19
2023-11-18T17:08:01.850Z,100388.78
2023-11-18T17:10:29.905Z,100374.44
2023-11-18T17:12:59.031Z,100382.13
2023-11-18T17:15:26.957Z,100378.03
2023-11-18T17:18:03.206Z,100380.31
2023-11-18T17:20:32.216Z,100373.25
2023-11-18T17:23:00.052Z,100387.59
2023-11-18T17:25:27.644Z,100380.19
2023-11-18T17:27:55.282Z,100384.28
2023-11-18T17:30:22.687Z,100400.66
2023-11-18T17:32:51.833Z,100402.31
2023-11-18T17:35:21.398Z,100401.97
2023-11-18T17:37:48.963Z,100398.41
2023-11-18T17:40:17.111Z,100404.22
2023-11-18T17:42:45.640Z,100400.31
2023-11-18T17:45:13.824Z,100404.50
2023-11-18T17:47:44.019Z,100411.03
2023-11-18T17:50:14.022Z,100410.72
2023-11-18T17:52:45.079Z,100409.47
2023-11-18T17:55:18.848Z,100398.00
2023-11-18T17:57:47.470Z,100392.47
2023-11-18T18:00:21.420Z,100393.13
2023-11-18T18:02:50.109Z,100386.31
2023-11-18T18:05:17.934Z,100389.75
2023-11-18T18:07:45.364Z,100404.50
2023-11-18T18:10:16.939Z,100409.84
2023-11-18T18:12:47.765Z,100397.31
2023-11-18T18:15:15.727Z,100393.81
2023-11-18T18:17:43.969Z,100400.38
2023-11-18T18:20:13.309Z,100404.09
2023-11-18T18:22:41.510Z,100395.28
2023-11-18T18:25:10.042Z,100400.88
2023-11-18T18:27:37.625Z,100393.09
2023-11-18T18:30:05.829Z,100382.47
2023-11-18T18:32:34.028Z,100392.50
2023-11-18T18:35:01.648Z,100363.50
2023-11-18T18:37:29.548Z,100388.69
2023-11-18T18:39:57.172Z,100394.97
2023-11-18T18:42:25.715Z,100385.81
2023-11-18T18:44:57.567Z,100391.22
2023-11-18T18:47:26.955Z,100396.37
2023-11-18T18:49:56.537Z,100391.91
2023-11-18T18:52:23.946Z,100395.59
2023-11-18T18:54:51.400Z,100373.25
2023-11-18T18:57:19.232Z,100381.59
2023-11-18T18:59:46.708Z,100380.53
2023-11-18T19:02:14.418Z,100376.16
2023-11-18T19:04:43.502Z,100373.84
2023-11-18T19:07:11.219Z,100385.44
2023-11-18T19:09:38.681Z,100394.69
2023-11-18T19:12:06.787Z,100394.25
2023-11-18T19:14:34.298Z,100386.91
2023-11-18T19:17:04.931Z,100384.12
2023-11-18T19:19:32.941Z,100373.72
2023-11-18T19:22:01.729Z,100370.62
2023-11-18T19:24:31.727Z,100382.13
2023-11-18T19:26:59.688Z,100365.44
2023-11-18T19:29:29.493Z,100373.59
2023-11-18T19:31:56.909Z,100389.78
2023-11-18T19:34:24.561Z,100403.97
2023-11-18T19:36:52.738Z,100410.53
2023-11-18T19:39:20.730Z,100386.06
2023-11-18T19:41:48.396Z,100397.09
2023-11-18T19:44:17.390Z,100398.59
2023-11-18T19:46:51.060Z,100401.28
2023-11-18T19:49:18.925Z,100402.72
2023-11-18T19:51:46.811Z,100396.22
2023-11-18T19:54:14.316Z,100408.41
2023-11-18T19:56:41.964Z,100403.37
2023-11-18T19:59:09.427Z,100416.50
2023-11-18T20:01:37.172Z,100423.16
2023-11-18T20:04:06.318Z,100423.47
2023-11-18T20:06:35.364Z,100429.44
2023-11-18T20:09:03.946Z,100437.63
2023-11-18T20:11:32.223Z,100418.72
2023-11-18T20:13:59.681Z,100411.44
2023-11-18T20:16:27.180Z,100406.97
2023-11-18T20:18:54.815Z,100400.63
2023-11-18T20:21:22.206Z,100407.19
2023-11-18T20:23:49.981Z,100412.50
2023-11-18T20:26:17.639Z,100415.38
2023-11-18T20:28:46.590Z,100427.37
2023-11-18T20:31:14.125Z,100431.62
2023-11-18T20:33:43.331Z,100426.78
2023-11-18T20:36:11.035Z,100423.75
2023-11-18T20:38:38.627Z,100428.69
2023-11-18T20:41:06.384Z,100441.56
2023-11-18T20:43:34.142Z,100430.00
2023-11-18T20:46:01.810Z,100433.03
2023-11-18T20:48:29.541Z,100428.47
2023-11-18T20:50:57.276Z,100434.72
2023-11-18T20:53:25.599Z,100448.91
2023-11-18T20:55:53.364Z,100442.16
2023-11-18T20:58:21.164Z,100430.56
2023-11-18T21:00:48.805Z,100437.34
2023-11-18T21:03:16.644Z,100453.25
2023-11-18T21:05:44.338Z,100470.25
2023-11-18T21:08:13.928Z,100464.59
2023-11-18T21:10:41.577Z,100446.13
2023-11-18T21:13:09.045Z,100445.16
2023-11-18T21:15:37.686Z,100449.75
2023-11-18T21:18:05.362Z,100444.22
2023-11-18T21:20:32.783Z,100453.34
2023-11-18T21:23:00.629Z,100467.41
2023-11-18T21:25:28.286Z,100469.97
2023-11-18T21:28:04.066Z,100478.19
2023-11-18T21:30:33.368Z,100482.94
2023-11-18T21:33:04.765Z,100473.91
2023-11-18T21:35:32.655Z,100468.84
2023-11-18T21:38:00.057Z,100460.50
2023-11-18T21:40:29.633Z,100462.75
2023-11-18T21:42:58.931Z,100464.47
2023-11-18T21:45:28.858Z,100458.66
2023-11-18T21:48:05.253Z,100458.06
2023-11-18T21:50:34.524Z,100458.97
2023-11-18T21:53:03.776Z,100457.47
2023-11-18T21:55:31.414Z,100460.44
2023-11-18T21:57:58.896Z,100456.66
2023-11-18T22:00:26.568Z,100438.50
2023-11-18T22:02:54.520Z,100441.78
2023-11-18T22:05:22.421Z,100448.97
2023-11-18T22:07:50.030Z,100446.97
2023-11-18T22:10:18.855Z,100443.16
2023-11-18T22:12:46.472Z,100437.56
2023-11-18T22:15:17.780Z,100439.25
2023-11-18T22:17:46.548Z,100438.38
2023-11-18T22:20:16.013Z,100448.31
2023-11-18T22:22:43.476Z,100445.25
2023-11-18T22:25:11.139Z,100449.97
2023-11-18T22:27:41.620Z,100429.09
2023-11-18T22:30:12.642Z,100422.41
2023-11-18T22:32:40.972Z,100413.84
2023-11-18T22:35:09.147Z,100419.22
2023-11-18T22:37:36.675Z,100422.88
2023-11-18T22:40:10.121Z,100426.16
2023-11-18T22:42:38.975Z,100419.72
2023-11-18T22:45:16.921Z,100418.25
2023-11-18T22:47:45.631Z,100414.41
2023-11-18T22:50:14.101Z,100402.25
2023-11-18T22:52:41.672Z,100392.06
2023-11-18T22:57:40.560Z,100419.87
2023-11-18T23:00:15.901Z,100425.03
2023-11-18T23:02:43.776Z,100422.16
2023-11-18T23:05:15.155Z,100419.22
2023-11-18T23:07:45.988Z,100425.84
2023-11-18T23:10:15.396Z,100433.37
2023-11-18T23:12:42.798Z,100434.88
2023-11-18T23:15:10.249Z,100417.38
2023-11-18T23:17:38.065Z,100407.53
2023-11-18T23:20:12.012Z,100400.50
2023-11-18T23:22:39.987Z,100406.84
2023-11-18T23:25:07.666Z,100404.59
2023-11-18T23:27:35.085Z,100396.09
2023-11-18T23:30:03.960Z,100388.25
2023-11-18T23:32:34.100Z,100402.59
2023-11-18T23:35:02.505Z,100388.75
2023-11-18T23:37:30.550Z,100377.88
2023-11-18T23:39:57.951Z,100372.53
2023-11-18T23:42:25.362Z,100377.38
2023-11-18T23:44:53.276Z,100370.59
2023-11-18T23:47:21.024Z,100382.41
2023-11-18T23:49:57.335Z,100386.69
2023-11-18T23:52:25.556Z,100385.97
2023-11-18T23:54:53.223Z,100375.87
2023-11-18T23:57:20.701Z,100388.00
2023-11-18T23:59:48.354Z,100389.28
